Time;durP1;ratioP1;P1;durP2;ratioP2;P2;SDS_P1;SDS_P2;PMS_P1;PMS_P2;Temp;Humidity;BMP_temperature;BMP_pressure;BME280_temperature;BME280_humidity;BME280_pressure;Samples;Min_cycle;Max_cycle;Signal;HPM_P1;HPM_P2
2024/01/09 00:00:04;;;;;;;2.30;2.20;;;-4.00;99.90;;;;;;4981390;28;20461;-67
2024/01/09 00:02:31;;;;;;;1.33;1.23;;;-4.00;99.90;;;;;;4985355;28;20477;-67
2024/01/09 00:04:57;;;;;;;1.53;1.40;;;-4.00;99.90;;;;;;4972006;28;20458;-68
2024/01/09 00:07:25;;;;;;;2.57;2.37;;;-4.00;99.90;;;;;;4978767;28;20459;-68
2024/01/09 00:09:52;;;;;;;1.33;1.23;;;-4.00;99.90;;;;;;4981599;28;20511;-68
2024/01/09 00:12:19;;;;;;;1.50;1.10;;;-4.00;99.90;;;;;;4979397;28;20445;-67
2024/01/09 00:14:45;;;;;;;2.80;2.53;;;-4.00;99.90;;;;;;4986269;28;20493;-68
2024/01/09 00:17:12;;;;;;;1.40;1.23;;;-4.00;99.90;;;;;;4984886;28;20440;-67
2024/01/09 00:19:39;;;;;;;0.90;0.70;;;-4.00;99.90;;;;;;4976518;28;20468;-69
2024/01/09 00:22:06;;;;;;;2.50;1.30;;;-4.00;99.90;;;;;;4985583;28;20481;-67
2024/01/09 00:24:34;;;;;;;1.10;1.00;;;-4.00;99.90;;;;;;4983706;28;20437;-68
2024/01/09 00:27:00;;;;;;;2.63;2.17;;;-4.00;99.90;;;;;;4977470;28;20478;-67
2024/01/09 00:29:27;;;;;;;1.20;1.10;;;-4.00;99.90;;;;;;4986150;28;20421;-68
2024/01/09 00:31:54;;;;;;;1.83;1.73;;;-4.00;99.90;;;;;;4987661;28;20466;-68
2024/01/09 00:34:20;;;;;;;2.00;1.90;;;-4.00;99.90;;;;;;4984602;28;21069;-68
2024/01/09 00:36:47;;;;;;;1.13;1.03;;;-4.10;99.90;;;;;;4987762;28;20447;-67
2024/01/09 00:39:14;;;;;;;2.00;1.80;;;-4.10;99.90;;;;;;4973872;28;20498;-68
2024/01/09 00:41:42;;;;;;;1.23;1.00;;;-4.10;99.90;;;;;;4982077;28;20448;-68
2024/01/09 00:44:09;;;;;;;3.43;3.13;;;-4.20;99.90;;;;;;4987038;28;20991;-68
2024/01/09 00:46:36;;;;;;;1.70;1.60;;;-4.20;99.90;;;;;;4988617;28;20445;-67
2024/01/09 00:49:02;;;;;;;0.90;0.80;;;-4.20;99.90;;;;;;4981443;28;20458;-68
2024/01/09 00:51:29;;;;;;;2.33;1.80;;;-4.20;99.90;;;;;;4985660;28;20462;-68
2024/01/09 00:53:56;;;;;;;1.57;1.23;;;-4.20;99.90;;;;;;4986915;28;20459;-68
2024/01/09 00:56:23;;;;;;;5.33;3.20;;;-4.20;99.90;;;;;;4981690;28;20447;-68
2024/01/09 00:58:51;;;;;;;1.53;1.10;;;-4.20;99.90;;;;;;4980256;28;20970;-68
2024/01/09 01:01:25;;;;;;;1.07;0.97;;;-4.20;99.90;;;;;;4984013;28;20432;-67
2024/01/09 01:03:52;;;;;;;0.90;0.73;;;-4.20;99.90;;;;;;4985080;28;20465;-68
2024/01/09 01:06:19;;;;;;;1.60;1.50;;;-4.20;99.90;;;;;;4984888;28;20448;-67
2024/01/09 01:08:45;;;;;;;0.90;0.70;;;-4.30;99.90;;;;;;4985432;28;20963;-68
2024/01/09 01:11:12;;;;;;;4.40;3.23;;;-4.30;99.90;;;;;;4982783;28;20435;-67
2024/01/09 01:13:39;;;;;;;0.90;0.70;;;-4.30;99.90;;;;;;4983748;28;20436;-67
2024/01/09 01:16:07;;;;;;;1.23;1.13;;;-4.30;99.90;;;;;;4985481;28;20482;-67
2024/01/09 01:18:34;;;;;;;0.93;0.83;;;-4.30;99.90;;;;;;4986015;28;20452;-67
2024/01/09 01:21:00;;;;;;;0.90;0.80;;;-4.30;99.90;;;;;;4983874;28;20585;-68
2024/01/09 01:23:27;;;;;;;1.17;1.07;;;-4.30;99.90;;;;;;4984759;28;20476;-68
2024/01/09 01:25:54;;;;;;;0.90;0.70;;;-4.30;99.90;;;;;;4976088;28;20458;-68
2024/01/09 01:28:21;;;;;;;2.37;2.10;;;-4.30;99.90;;;;;;4980001;28;20935;-68
2024/01/09 01:30:47;;;;;;;0.90;0.80;;;-4.30;99.90;;;;;;4983974;28;20448;-69
2024/01/09 01:33:15;;;;;;;3.77;3.47;;;-4.40;99.90;;;;;;4979013;28;21116;-68
2024/01/09 01:35:42;;;;;;;1.00;0.90;;;-4.40;99.90;;;;;;4983351;28;20491;-68
2024/01/09 01:38:09;;;;;;;0.90;0.70;;;-4.40;99.90;;;;;;4974296;28;20477;-68
2024/01/09 01:40:35;;;;;;;3.00;1.30;;;-4.40;99.90;;;;;;4978514;28;20461;-68
2024/01/09 01:43:02;;;;;;;1.83;1.23;;;-4.40;99.90;;;;;;4975253;28;20461;-67
2024/01/09 01:45:29;;;;;;;3.53;1.70;;;-4.30;99.90;;;;;;4976447;28;20479;-68
2024/01/09 01:47:56;;;;;;;2.70;1.37;;;-4.40;99.90;;;;;;4981685;28;20485;-68
2024/01/09 01:50:25;;;;;;;1.97;1.73;;;-4.40;99.90;;;;;;4985519;28;20442;-68
2024/01/09 01:52:52;;;;;;;0.90;0.80;;;-4.50;99.90;;;;;;4985612;28;20509;-68
2024/01/09 01:55:24;;;;;;;2.43;2.13;;;-4.40;99.90;;;;;;4984534;28;20457;-68
2024/01/09 01:57:53;;;;;;;1.10;1.00;;;-4.40;99.90;;;;;;4977296;28;21427;-68
2024/01/09 02:00:21;;;;;;;1.47;1.30;;;-4.40;99.90;;;;;;4985039;28;20425;-69
2024/01/09 02:02:48;;;;;;;2.00;1.43;;;-4.40;99.90;;;;;;4981836;28;20467;-67
2024/01/09 02:05:17;;;;;;;1.83;1.73;;;-4.50;99.90;;;;;;4986946;28;20482;-68
2024/01/09 02:07:46;;;;;;;3.30;3.00;;;-4.50;99.90;;;;;;4982617;28;20463;-68
2024/01/09 02:10:13;;;;;;;0.90;0.80;;;-4.50;99.90;;;;;;4985132;28;20466;-67
2024/01/09 02:12:40;;;;;;;1.43;1.33;;;-4.50;99.90;;;;;;4981077;28;20441;-68
2024/01/09 02:15:08;;;;;;;1.30;1.10;;;-4.40;99.90;;;;;;4987778;28;20509;-67
2024/01/09 02:17:35;;;;;;;3.73;1.53;;;-4.40;99.90;;;;;;4981975;28;20462;-67
2024/01/09 02:20:01;;;;;;;1.40;1.13;;;-4.50;99.90;;;;;;4973045;28;20458;-68
2024/01/09 02:22:28;;;;;;;1.57;0.93;;;-4.40;99.90;;;;;;4986563;28;20801;-68
2024/01/09 02:24:56;;;;;;;0.90;0.70;;;-4.50;99.90;;;;;;4975890;28;20482;-67
2024/01/09 02:27:31;;;;;;;0.90;0.80;;;-4.50;99.90;;;;;;4975758;28;20967;-67
2024/01/09 02:30:00;;;;;;;1.43;1.33;;;-4.50;99.90;;;;;;4976519;28;20458;-67
2024/01/09 02:32:26;;;;;;;1.40;1.30;;;-4.50;99.90;;;;;;4981792;28;20464;-68
2024/01/09 02:34:53;;;;;;;2.07;1.97;;;-4.50;99.90;;;;;;4983194;28;20471;-68
2024/01/09 02:37:20;;;;;;;0.90;0.70;;;-4.50;99.90;;;;;;4979537;28;20459;-68
2024/01/09 02:39:47;;;;;;;0.90;0.70;;;-4.50;99.90;;;;;;4979008;28;20560;-67
2024/01/09 02:42:13;;;;;;;1.40;1.07;;;-4.50;99.90;;;;;;4981709;28;20458;-67
2024/01/09 02:44:40;;;;;;;4.93;2.20;;;-4.50;99.90;;;;;;4977191;28;20489;-68
2024/01/09 02:47:08;;;;;;;0.90;0.80;;;-4.60;99.90;;;;;;4987810;28;20939;-68
2024/01/09 02:49:36;;;;;;;4.63;4.43;;;-4.50;99.90;;;;;;4984780;28;20955;-68
2024/01/09 02:52:04;;;;;;;1.37;1.27;;;-4.50;99.90;;;;;;4984747;28;20462;-67
2024/01/09 02:54:30;;;;;;;2.03;1.40;;;-4.50;99.90;;;;;;4981082;28;20497;-67
2024/01/09 02:56:57;;;;;;;4.30;1.90;;;-4.60;99.90;;;;;;4983666;28;20493;-68
2024/01/09 02:59:26;;;;;;;2.00;1.90;;;-4.60;99.90;;;;;;4982463;28;20930;-67
2024/01/09 03:01:53;;;;;;;2.50;2.30;;;-4.70;99.90;;;;;;4985214;28;20445;-68
2024/01/09 03:04:21;;;;;;;1.17;1.07;;;-4.70;99.90;;;;;;4984895;28;20523;-68
2024/01/09 03:06:47;;;;;;;1.63;1.53;;;-4.70;99.90;;;;;;4986697;28;20497;-66
2024/01/09 03:09:16;;;;;;;8.30;3.70;;;-4.70;99.90;;;;;;4984602;28;20932;-68
2024/01/09 03:11:42;;;;;;;1.57;1.20;;;-4.70;99.90;;;;;;4987232;28;20466;-68
2024/01/09 03:14:09;;;;;;;1.20;1.10;;;-4.70;99.90;;;;;;4985094;28;21483;-67
2024/01/09 03:16:36;;;;;;;1.13;1.03;;;-4.70;99.90;;;;;;4982680;28;20569;-68
2024/01/09 03:19:03;;;;;;;1.20;1.10;;;-4.70;99.90;;;;;;4982823;28;20466;-69
2024/01/09 03:21:31;;;;;;;3.00;2.70;;;-4.70;99.90;;;;;;4984549;28;20454;-68
2024/01/09 03:23:57;;;;;;;0.90;0.70;;;-4.70;99.90;;;;;;4984574;28;20467;-68
2024/01/09 03:26:24;;;;;;;1.40;1.30;;;-4.70;99.90;;;;;;4984884;28;20480;-68
2024/01/09 03:28:51;;;;;;;1.60;1.40;;;-4.70;99.90;;;;;;4979958;28;20841;-68
2024/01/09 03:31:21;;;;;;;1.73;1.30;;;-4.80;99.90;;;;;;4983577;28;20458;-68
2024/01/09 03:33:48;;;;;;;1.60;1.20;;;-4.80;99.90;;;;;;4985330;28;20457;-68
2024/01/09 03:36:16;;;;;;;2.40;1.33;;;-4.80;99.90;;;;;;4987150;28;20835;-67
2024/01/09 03:38:45;;;;;;;1.20;1.10;;;-4.80;99.90;;;;;;4981350;28;20437;-67
2024/01/09 03:41:13;;;;;;;3.57;1.80;;;-4.80;99.90;;;;;;4988340;28;21273;-67
2024/01/09 03:43:39;;;;;;;2.03;1.40;;;-4.80;99.90;;;;;;4983619;28;20967;-67
2024/01/09 03:46:06;;;;;;;1.20;1.10;;;-4.90;99.90;;;;;;4984229;28;20469;-68
2024/01/09 03:48:33;;;;;;;1.10;1.00;;;-4.90;99.90;;;;;;4985651;28;21230;-68
2024/01/09 03:50:59;;;;;;;2.43;1.73;;;-4.90;99.90;;;;;;4985724;28;20462;-68
2024/01/09 03:53:26;;;;;;;1.10;1.00;;;-4.90;99.90;;;;;;4990198;28;20905;-67
2024/01/09 03:55:54;;;;;;;0.97;0.83;;;-4.80;99.90;;;;;;4989377;28;20489;-67
2024/01/09 03:58:21;;;;;;;1.00;0.90;;;-4.90;99.90;;;;;;4985510;28;20877;-67
2024/01/09 04:00:48;;;;;;;1.00;0.90;;;-4.90;99.90;;;;;;4984785;28;20445;-68
2024/01/09 04:03:15;;;;;;;0.90;0.70;;;-4.90;99.90;;;;;;4988465;28;20535;-67
2024/01/09 04:05:42;;;;;;;1.70;1.00;;;-4.90;99.90;;;;;;4988682;28;20462;-68
2024/01/09 04:08:09;;;;;;;0.90;0.80;;;-4.90;99.90;;;;;;4985510;28;20469;-67
2024/01/09 04:10:36;;;;;;;2.53;1.77;;;-4.90;99.90;;;;;;4988866;28;20465;-67
2024/01/09 04:13:04;;;;;;;0.90;0.80;;;-4.90;99.90;;;;;;4987430;28;20462;-67
2024/01/09 04:15:32;;;;;;;1.67;1.57;;;-4.90;99.90;;;;;;4982770;28;20467;-67
2024/01/09 04:17:58;;;;;;;0.90;0.70;;;-4.90;99.90;;;;;;4988505;28;21055;-68
2024/01/09 04:20:25;;;;;;;4.70;2.10;;;-4.90;99.90;;;;;;4987156;28;20911;-67
2024/01/09 04:22:52;;;;;;;0.90;0.80;;;-4.90;99.90;;;;;;4987684;28;20458;-67
2024/01/09 04:25:19;;;;;;;1.20;1.10;;;-4.90;99.90;;;;;;4986705;28;20482;-67
2024/01/09 04:27:45;;;;;;;2.70;1.63;;;-4.90;99.90;;;;;;4983919;28;20474;-68
2024/01/09 04:30:14;;;;;;;0.90;0.80;;;-5.00;99.90;;;;;;4985733;28;20461;-68
2024/01/09 04:32:41;;;;;;;1.30;1.20;;;-5.00;99.90;;;;;;4983532;28;20466;-67
2024/01/09 04:35:07;;;;;;;2.60;2.40;;;-4.90;99.90;;;;;;4988653;28;20567;-68
2024/01/09 04:37:35;;;;;;;2.53;1.50;;;-4.90;99.90;;;;;;4985991;28;20455;-67
2024/01/09 04:40:02;;;;;;;2.37;2.13;;;-4.90;99.90;;;;;;4986156;28;20465;-67
2024/01/09 04:42:28;;;;;;;1.40;1.20;;;-5.00;99.90;;;;;;4986979;28;20873;-67
2024/01/09 04:44:55;;;;;;;9.90;4.63;;;-5.00;99.90;;;;;;4984745;28;20467;-67
2024/01/09 04:47:23;;;;;;;0.90;0.77;;;-5.00;99.90;;;;;;4984913;28;20456;-67
2024/01/09 04:49:50;;;;;;;4.10;1.30;;;-4.90;99.90;;;;;;4982445;28;20470;-68
2024/01/09 04:52:16;;;;;;;1.90;1.80;;;-5.00;99.90;;;;;;4983535;28;20455;-67
2024/01/09 04:54:43;;;;;;;1.27;1.17;;;-5.00;99.90;;;;;;4983339;28;20991;-67
2024/01/09 04:57:10;;;;;;;1.20;1.10;;;-5.00;99.90;;;;;;4983058;28;20468;-68
2024/01/09 04:59:37;;;;;;;1.43;1.33;;;-5.00;99.90;;;;;;4987142;28;20462;-68
2024/01/09 05:02:04;;;;;;;3.37;1.40;;;-4.90;99.90;;;;;;4981788;28;20547;-67
2024/01/09 05:04:32;;;;;;;5.73;2.27;;;-5.00;99.90;;;;;;4984893;28;20445;-67
2024/01/09 05:06:59;;;;;;;2.40;1.10;;;-5.00;99.90;;;;;;4982764;28;20463;-67
2024/01/09 05:09:26;;;;;;;1.00;0.90;;;-5.10;99.90;;;;;;4978348;28;20497;-67
2024/01/09 05:11:52;;;;;;;1.47;1.30;;;-5.00;99.90;;;;;;4986334;28;20425;-68
2024/01/09 05:14:19;;;;;;;2.17;1.50;;;-5.00;99.90;;;;;;4986529;28;20482;-67
2024/01/09 05:16:46;;;;;;;1.77;1.30;;;-5.10;99.90;;;;;;4985049;28;20490;-67
2024/01/09 05:19:13;;;;;;;1.27;1.17;;;-5.10;99.90;;;;;;4986184;28;20446;-67
2024/01/09 05:21:41;;;;;;;1.20;1.07;;;-5.10;99.90;;;;;;4985860;28;20485;-68
2024/01/09 05:24:08;;;;;;;1.33;1.07;;;-5.10;99.90;;;;;;4983266;28;20489;-68
2024/01/09 05:26:34;;;;;;;1.80;1.70;;;-5.00;99.90;;;;;;4985032;28;20467;-68
2024/01/09 05:29:01;;;;;;;1.00;0.80;;;-5.10;99.90;;;;;;4985378;28;20949;-68
2024/01/09 05:31:28;;;;;;;1.93;1.83;;;-5.10;99.90;;;;;;4984914;28;20473;-68
2024/01/09 05:33:55;;;;;;;1.07;0.97;;;-5.10;99.90;;;;;;4979966;28;20893;-68
2024/01/09 05:36:23;;;;;;;1.20;1.10;;;-5.10;99.90;;;;;;4984163;28;21327;-68
2024/01/09 05:38:52;;;;;;;2.70;1.47;;;-5.10;99.90;;;;;;4977156;28;20482;-68
2024/01/09 05:41:22;;;;;;;2.60;2.40;;;-5.10;99.90;;;;;;4979914;28;20458;-67
2024/01/09 05:43:49;;;;;;;1.30;1.13;;;-5.20;99.90;;;;;;4978136;28;20532;-68
2024/01/09 05:46:18;;;;;;;2.10;1.93;;;-5.20;99.90;;;;;;4985634;28;20838;-68
2024/01/09 05:48:45;;;;;;;0.90;0.80;;;-5.10;99.90;;;;;;4983861;28;20450;-68
2024/01/09 05:51:11;;;;;;;3.43;3.23;;;-5.20;99.90;;;;;;4988222;28;21452;-67
2024/01/09 05:53:38;;;;;;;1.87;1.77;;;-5.10;99.90;;;;;;4983585;28;20467;-68
2024/01/09 05:56:07;;;;;;;2.63;2.47;;;-5.20;99.90;;;;;;4985542;28;20482;-67
2024/01/09 05:58:34;;;;;;;14.57;2.80;;;-5.20;99.90;;;;;;4985936;28;20469;-68
2024/01/09 06:01:01;;;;;;;5.40;1.70;;;-5.10;99.90;;;;;;4986071;28;20427;-68
2024/01/09 06:03:27;;;;;;;1.30;1.20;;;-5.20;99.90;;;;;;4989122;28;20629;-71
2024/01/09 06:05:55;;;;;;;4.30;1.70;;;-5.20;99.90;;;;;;4985861;28;21211;-69
2024/01/09 06:08:22;;;;;;;1.23;1.13;;;-5.20;99.90;;;;;;4988211;28;20480;-68
2024/01/09 06:10:49;;;;;;;5.07;3.07;;;-5.20;99.90;;;;;;4981853;28;20469;-69
2024/01/09 06:13:17;;;;;;;0.90;0.70;;;-5.20;99.90;;;;;;4989039;28;20454;-68
2024/01/09 06:15:44;;;;;;;1.53;1.33;;;-5.20;99.90;;;;;;4983849;28;20522;-68
2024/01/09 06:18:11;;;;;;;1.57;1.47;;;-5.30;99.90;;;;;;4984061;28;20469;-68
2024/01/09 06:20:37;;;;;;;0.90;0.80;;;-5.20;99.90;;;;;;4979695;28;20473;-68
2024/01/09 06:23:04;;;;;;;3.10;2.67;;;-5.30;99.90;;;;;;4988797;28;20528;-68
2024/01/09 06:25:31;;;;;;;2.70;1.80;;;-5.20;99.90;;;;;;4987207;28;20448;-68
2024/01/09 06:27:58;;;;;;;11.50;1.97;;;-5.20;99.90;;;;;;4982894;28;20466;-68
2024/01/09 06:30:26;;;;;;;3.07;2.83;;;-5.20;99.90;;;;;;4985811;28;20474;-68
2024/01/09 06:32:53;;;;;;;1.07;0.97;;;-5.20;99.90;;;;;;4986053;28;20469;-68
2024/01/09 06:35:19;;;;;;;1.00;0.90;;;-5.20;99.90;;;;;;4986763;28;20967;-68
2024/01/09 06:37:46;;;;;;;1.13;1.03;;;-5.30;99.90;;;;;;4986974;28;20490;-68
2024/01/09 06:40:13;;;;;;;3.17;2.87;;;-5.20;99.90;;;;;;4980188;28;20577;-68
2024/01/09 06:42:40;;;;;;;1.70;1.60;;;-5.40;99.90;;;;;;4984476;28;20551;-68
2024/01/09 06:45:07;;;;;;;0.90;0.70;;;-5.30;99.90;;;;;;4985964;28;20485;-67
2024/01/09 06:47:36;;;;;;;2.33;1.97;;;-5.30;99.90;;;;;;4985923;28;20449;-68
2024/01/09 06:50:03;;;;;;;18.17;2.60;;;-5.30;99.90;;;;;;4979952;28;20920;-68
2024/01/09 06:52:31;;;;;;;1.20;1.10;;;-5.30;99.90;;;;;;4981424;28;20492;-68
2024/01/09 06:54:57;;;;;;;1.13;1.03;;;-5.30;99.90;;;;;;4986235;28;20474;-68
2024/01/09 06:57:24;;;;;;;0.90;0.80;;;-5.40;99.90;;;;;;4986857;28;20484;-69
2024/01/09 06:59:51;;;;;;;0.90;0.80;;;-5.30;99.90;;;;;;4986065;28;20532;-68
2024/01/09 07:02:18;;;;;;;1.27;1.17;;;-5.30;99.90;;;;;;4985573;28;20532;-68
2024/01/09 07:04:46;;;;;;;2.20;1.70;;;-5.30;99.90;;;;;;4985687;28;20987;-68
2024/01/09 07:07:12;;;;;;;2.60;1.63;;;-5.30;99.90;;;;;;4985915;28;20438;-68
2024/01/09 07:09:39;;;;;;;3.03;2.83;;;-5.30;99.90;;;;;;4985137;28;20931;-69
2024/01/09 07:12:08;;;;;;;1.37;1.27;;;-5.30;99.90;;;;;;4983696;28;20457;-68
2024/01/09 07:14:34;;;;;;;2.50;2.30;;;-5.40;99.90;;;;;;4986781;28;20561;-69
2024/01/09 07:17:01;;;;;;;0.90;0.70;;;-5.40;99.90;;;;;;4985917;28;20481;-68
2024/01/09 07:19:28;;;;;;;3.07;2.83;;;-5.50;99.90;;;;;;4985698;28;20465;-68
2024/01/09 07:21:56;;;;;;;4.53;2.70;;;-5.50;99.90;;;;;;4987480;28;20447;-68
2024/01/09 07:24:23;;;;;;;2.43;1.10;;;-5.50;99.90;;;;;;4986830;28;20449;-68
2024/01/09 07:26:49;;;;;;;0.90;0.80;;;-5.50;99.90;;;;;;4983091;28;20474;-68
2024/01/09 07:29:19;;;;;;;2.03;1.73;;;-5.40;99.90;;;;;;4987116;28;20445;-68
2024/01/09 07:31:46;;;;;;;1.47;1.37;;;-5.40;99.90;;;;;;4990480;28;20461;-68
2024/01/09 07:34:12;;;;;;;0.90;0.80;;;-5.40;99.90;;;;;;4987983;28;20463;-67
2024/01/09 07:36:39;;;;;;;1.77;1.07;;;-5.40;99.90;;;;;;4990844;28;20489;-67
2024/01/09 07:39:09;;;;;;;0.90;0.80;;;-5.50;99.90;;;;;;4987998;28;20543;-68
2024/01/09 07:41:36;;;;;;;1.87;1.60;;;-5.40;99.90;;;;;;4988227;28;20562;-68
2024/01/09 07:44:03;;;;;;;0.90;0.80;;;-5.50;99.90;;;;;;4984851;28;20846;-68
2024/01/09 07:46:30;;;;;;;3.43;3.23;;;-5.50;99.90;;;;;;4989648;28;20469;-68
2024/01/09 07:48:57;;;;;;;2.20;2.10;;;-5.40;99.90;;;;;;4983809;28;20561;-68
2024/01/09 07:51:23;;;;;;;1.10;1.00;;;-5.40;99.90;;;;;;4989533;28;21052;-68
2024/01/09 07:53:50;;;;;;;2.80;1.77;;;-5.50;99.90;;;;;;4988729;28;20458;-68
2024/01/09 07:56:19;;;;;;;9.03;2.63;;;-5.40;99.90;;;;;;4988807;28;20499;-67
2024/01/09 07:58:47;;;;;;;3.93;2.90;;;-5.50;99.90;;;;;;4988767;28;20458;-68
2024/01/09 08:01:14;;;;;;;3.67;2.50;;;-5.40;99.90;;;;;;4985017;28;20446;-68
2024/01/09 08:03:41;;;;;;;6.00;2.20;;;-5.40;99.90;;;;;;4985216;28;20457;-68
2024/01/09 08:06:09;;;;;;;1.20;1.03;;;-5.30;99.90;;;;;;4986321;28;20480;-67
2024/01/09 08:08:39;;;;;;;3.57;2.57;;;-5.30;99.90;;;;;;4987605;28;20450;-68
2024/01/09 08:11:06;;;;;;;1.40;1.30;;;-5.30;99.90;;;;;;4984935;28;20580;-68
2024/01/09 08:13:34;;;;;;;2.87;2.67;;;-5.20;99.90;;;;;;4986764;28;20969;-68
2024/01/09 08:16:00;;;;;;;1.37;1.27;;;-5.20;99.90;;;;;;4983464;28;20458;-68
2024/01/09 08:18:27;;;;;;;2.20;1.73;;;-5.10;99.90;;;;;;4979520;28;20429;-68
2024/01/09 08:20:58;;;;;;;1.10;1.00;;;-5.00;99.90;;;;;;4986831;28;20461;-68
2024/01/09 08:23:25;;;;;;;1.17;1.00;;;-4.90;99.90;;;;;;4986282;28;20467;-68
2024/01/09 08:25:52;;;;;;;3.80;2.10;;;-4.90;99.90;;;;;;4984870;28;20454;-68
2024/01/09 08:28:19;;;;;;;2.63;2.37;;;-4.90;99.90;;;;;;4984059;28;20847;-68
2024/01/09 08:30:47;;;;;;;2.10;2.00;;;-4.80;99.90;;;;;;4987576;28;20486;-68
2024/01/09 08:33:14;;;;;;;3.83;2.70;;;-4.80;99.90;;;;;;4989892;28;20577;-68
2024/01/09 08:35:43;;;;;;;5.33;2.63;;;-4.70;99.90;;;;;;4989529;28;20820;-68
2024/01/09 08:38:10;;;;;;;1.00;0.90;;;-4.70;99.90;;;;;;4984331;28;20811;-68
2024/01/09 08:40:37;;;;;;;1.00;0.90;;;-4.60;99.90;;;;;;4985742;28;20440;-67
2024/01/09 08:43:04;;;;;;;1.40;1.27;;;-4.70;99.90;;;;;;4989013;28;20781;-67
2024/01/09 08:45:31;;;;;;;2.03;1.10;;;-4.60;99.90;;;;;;4989789;28;20845;-68
2024/01/09 08:47:59;;;;;;;5.33;2.80;;;-4.50;99.90;;;;;;4981481;28;20438;-68
2024/01/09 08:50:25;;;;;;;3.63;2.43;;;-4.30;99.90;;;;;;4981421;28;20458;-67
2024/01/09 08:52:54;;;;;;;1.30;1.20;;;-4.00;99.90;;;;;;4983137;28;20444;-68
2024/01/09 08:55:20;;;;;;;1.47;1.37;;;-3.60;99.90;;;;;;4987677;28;20486;-67
2024/01/09 08:57:48;;;;;;;3.87;1.60;;;-3.10;99.90;;;;;;4987419;28;20858;-68
2024/01/09 09:00:16;;;;;;;2.80;2.00;;;-2.80;99.90;;;;;;4987058;28;20437;-68
2024/01/09 09:02:43;;;;;;;2.50;1.37;;;-2.40;99.90;;;;;;4987150;28;20449;-68
2024/01/09 09:05:12;;;;;;;3.10;2.90;;;-1.90;99.90;;;;;;4988129;28;20460;-68
2024/01/09 09:07:38;;;;;;;1.03;0.93;;;-1.60;99.90;;;;;;4984563;28;20936;-68
2024/01/09 09:10:06;;;;;;;6.83;3.00;;;-1.70;99.90;;;;;;4981928;28;20466;-68
2024/01/09 09:12:32;;;;;;;7.37;2.93;;;-2.30;99.90;;;;;;4984043;28;21042;-69
2024/01/09 09:14:59;;;;;;;1.00;0.90;;;-2.70;99.90;;;;;;4987852;28;20460;-69
2024/01/09 09:17:26;;;;;;;1.73;1.63;;;-2.60;99.90;;;;;;4984942;28;20465;-68
2024/01/09 09:19:53;;;;;;;2.17;2.00;;;-2.40;99.90;;;;;;4972938;28;20437;-68
2024/01/09 09:22:23;;;;;;;1.47;1.33;;;-2.10;99.90;;;;;;4984043;28;20450;-68
2024/01/09 09:24:50;;;;;;;3.20;2.07;;;-1.60;99.90;;;;;;4987856;28;20459;-68
2024/01/09 09:27:17;;;;;;;1.93;1.50;;;-0.90;99.90;;;;;;4985254;28;20991;-68
2024/01/09 09:29:43;;;;;;;3.43;3.13;;;-0.70;99.90;;;;;;4988766;28;20443;-68
2024/01/09 09:32:10;;;;;;;3.37;2.27;;;-0.90;99.90;;;;;;4986470;28;20450;-68
2024/01/09 09:34:40;;;;;;;2.50;2.30;;;-1.10;99.90;;;;;;4987835;28;20468;-68
2024/01/09 09:37:06;;;;;;;2.47;2.27;;;-1.80;99.90;;;;;;4987773;28;20467;-68
2024/01/09 09:39:34;;;;;;;2.10;1.90;;;-2.20;99.90;;;;;;4975137;28;20558;-69
2024/01/09 09:42:01;;;;;;;2.97;2.00;;;-2.30;99.90;;;;;;4988031;28;20446;-69
2024/01/09 09:44:28;;;;;;;3.97;2.23;;;-2.60;99.90;;;;;;4980115;28;20474;-68
2024/01/09 09:46:55;;;;;;;4.47;3.53;;;-2.70;99.90;;;;;;4986752;28;20974;-68
2024/01/09 09:49:23;;;;;;;1.40;1.10;;;-2.60;99.90;;;;;;4979128;28;20462;-68
2024/01/09 09:51:51;;;;;;;2.50;1.77;;;-2.80;99.90;;;;;;4984844;28;20450;-69
2024/01/09 09:54:22;;;;;;;1.50;0.97;;;-2.80;99.90;;;;;;4985880;28;20474;-67
2024/01/09 09:56:50;;;;;;;6.40;5.50;;;-2.60;99.90;;;;;;4987160;28;20466;-69
2024/01/09 09:59:17;;;;;;;3.50;3.13;;;-2.20;99.90;;;;;;4980294;28;20442;-68
2024/01/09 10:01:46;;;;;;;4.30;1.17;;;-1.40;99.90;;;;;;4986292;28;20795;-68
2024/01/09 10:04:27;;;;;;;1.53;1.13;;;-0.70;99.90;;;;;;4982167;28;20946;-68
2024/01/09 10:06:56;;;;;;;1.77;1.67;;;-1.00;99.90;;;;;;4982429;28;20491;-68
2024/01/09 10:09:24;;;;;;;4.23;2.60;;;-1.50;99.90;;;;;;4982404;28;20462;-68
2024/01/09 10:11:52;;;;;;;5.33;1.40;;;-1.80;99.90;;;;;;4987486;28;20446;-68
2024/01/09 10:14:19;;;;;;;1.97;1.80;;;-2.20;99.90;;;;;;4980555;28;21387;-68
2024/01/09 10:16:50;;;;;;;8.53;1.80;;;-2.20;99.90;;;;;;4984176;28;20458;-67
2024/01/09 10:19:17;;;;;;;1.90;1.50;;;-1.90;99.90;;;;;;4981581;28;20507;-68
2024/01/09 10:21:44;;;;;;;1.57;1.47;;;-1.60;99.90;;;;;;4980552;28;20446;-68
2024/01/09 10:24:10;;;;;;;1.10;1.00;;;-1.30;99.90;;;;;;4985686;28;20452;-68
2024/01/09 10:26:37;;;;;;;3.10;2.57;;;-1.40;99.90;;;;;;4986430;28;20421;-68
2024/01/09 10:29:05;;;;;;;1.50;1.40;;;-1.70;99.90;;;;;;4982091;28;20440;-68
2024/01/09 10:31:32;;;;;;;2.97;1.40;;;-1.80;99.90;;;;;;4984593;28;20459;-68
2024/01/09 10:33:59;;;;;;;11.43;3.33;;;-1.90;99.90;;;;;;4983907;28;20467;-68
2024/01/09 10:36:27;;;;;;;2.70;2.53;;;-1.80;99.90;;;;;;4984761;28;20431;-68
2024/01/09 10:39:04;;;;;;;5.37;3.67;;;-2.00;99.90;;;;;;4980670;28;20584;-68
2024/01/09 10:41:30;;;;;;;4.83;2.50;;;-2.30;99.90;;;;;;4976074;28;20451;-68
2024/01/09 10:43:59;;;;;;;1.43;1.33;;;-2.30;99.90;;;;;;4981673;28;20481;-67
2024/01/09 10:46:29;;;;;;;1.20;1.10;;;-2.10;99.90;;;;;;4980582;28;20548;-67
2024/01/09 10:48:57;;;;;;;2.27;1.60;;;-2.00;99.90;;;;;;4976020;28;20474;-68
2024/01/09 10:51:24;;;;;;;1.93;1.83;;;-2.00;99.90;;;;;;4987390;28;20800;-67
2024/01/09 10:53:52;;;;;;;2.30;1.53;;;-1.90;99.90;;;;;;4984136;28;20474;-69
2024/01/09 10:56:21;;;;;;;2.60;1.77;;;-2.00;99.90;;;;;;4985888;28;20488;-69
2024/01/09 10:58:49;;;;;;;4.70;2.83;;;-1.90;99.90;;;;;;4983246;28;20489;-67
2024/01/09 11:01:16;;;;;;;6.40;3.00;;;-2.00;99.40;;;;;;4979132;28;20462;-67
2024/01/09 11:03:45;;;;;;;2.30;2.10;;;-2.00;99.30;;;;;;4985363;28;20439;-68
2024/01/09 11:06:15;;;;;;;1.10;0.93;;;-2.00;99.40;;;;;;4984490;28;20432;-67
2024/01/09 11:08:44;;;;;;;2.37;2.10;;;-2.00;99.60;;;;;;4986036;28;20523;-68
2024/01/09 11:11:16;;;;;;;3.90;1.37;;;-2.00;99.50;;;;;;4986267;28;20428;-67
2024/01/09 11:13:46;;;;;;;2.30;1.20;;;-1.90;99.30;;;;;;4985238;28;20462;-67
2024/01/09 11:16:16;;;;;;;1.70;1.60;;;-1.90;99.20;;;;;;4983137;28;20460;-68
2024/01/09 11:18:46;;;;;;;1.27;1.17;;;-1.90;98.50;;;;;;4982818;28;20486;-68
2024/01/09 11:21:13;;;;;;;2.70;2.00;;;-1.70;98.00;;;;;;4985356;28;20448;-67
2024/01/09 11:23:54;;;;;;;5.40;1.33;;;-1.60;98.00;;;;;;4981599;28;20437;-68
2024/01/09 11:26:23;;;;;;;15.83;1.67;;;-1.50;97.40;;;;;;4980589;28;20468;-67
2024/01/09 11:28:50;;;;;;;1.83;1.73;;;-1.50;97.10;;;;;;4981011;28;20445;-68
2024/01/09 11:31:20;;;;;;;1.57;1.33;;;-1.40;96.30;;;;;;4986534;28;20436;-68
2024/01/09 11:33:48;;;;;;;1.40;1.30;;;-1.40;96.10;;;;;;4982458;28;20477;-68
2024/01/09 11:36:22;;;;;;;2.20;1.53;;;-1.40;95.80;;;;;;4984746;28;20465;-68
2024/01/09 11:38:52;;;;;;;5.50;1.53;;;-1.30;95.40;;;;;;4984579;28;20486;-67
2024/01/09 11:41:18;;;;;;;1.53;1.30;;;-1.20;95.00;;;;;;4984601;28;20565;-68
2024/01/09 11:43:58;;;;;;;2.03;1.93;;;-1.20;93.80;;;;;;4986211;28;20468;-68
2024/01/09 11:46:26;;;;;;;3.77;1.60;;;-1.10;93.90;;;;;;4982947;28;20443;-68
2024/01/09 11:48:55;;;;;;;1.30;1.20;;;-0.70;93.70;;;;;;4976007;28;20501;-68
2024/01/09 11:51:22;;;;;;;1.30;1.17;;;-0.50;92.30;;;;;;4986422;28;20473;-68
2024/01/09 11:53:50;;;;;;;1.27;1.17;;;-0.20;91.40;;;;;;4984442;28;20439;-68
2024/01/09 11:56:16;;;;;;;2.87;2.67;;;0.40;91.40;;;;;;4984548;28;20485;-68
2024/01/09 11:58:44;;;;;;;1.67;1.43;;;0.90;90.40;;;;;;4983639;28;20511;-68
2024/01/09 12:01:11;;;;;;;2.10;1.87;;;1.00;87.50;;;;;;4977071;28;20451;-68
2024/01/09 12:03:37;;;;;;;3.87;2.30;;;1.30;86.10;;;;;;4981909;28;20446;-69
2024/01/09 12:06:06;;;;;;;2.40;1.77;;;1.70;82.40;;;;;;4985061;28;20441;-69
2024/01/09 12:08:33;;;;;;;0.90;0.70;;;2.00;83.50;;;;;;4980410;28;21001;-68
2024/01/09 12:11:00;;;;;;;2.97;2.40;;;2.50;81.70;;;;;;4983489;28;20428;-68
2024/01/09 12:13:27;;;;;;;1.83;1.47;;;3.10;78.10;;;;;;4988283;28;20446;-69
2024/01/09 12:15:54;;;;;;;1.67;1.57;;;3.10;75.90;;;;;;4984795;28;20791;-68
2024/01/09 12:18:21;;;;;;;2.17;1.30;;;3.40;76.30;;;;;;4988277;28;20456;-68
2024/01/09 12:20:49;;;;;;;2.63;1.93;;;3.40;73.00;;;;;;4981657;28;20447;-68
2024/01/09 12:23:19;;;;;;;1.83;1.47;;;3.70;72.00;;;;;;4977284;28;20501;-67
2024/01/09 12:25:48;;;;;;;1.27;1.17;;;4.00;70.80;;;;;;4990734;28;21060;-67
2024/01/09 12:28:15;;;;;;;1.90;1.80;;;3.90;69.00;;;;;;4984134;28;20946;-68
2024/01/09 12:30:42;;;;;;;2.43;2.07;;;3.80;67.60;;;;;;4994538;28;20416;-68
2024/01/09 12:33:09;;;;;;;2.23;1.90;;;4.30;67.70;;;;;;4984202;28;20450;-67
2024/01/09 12:35:37;;;;;;;3.10;1.90;;;4.70;66.90;;;;;;4985376;28;20445;-67
2024/01/09 12:38:05;;;;;;;1.30;1.03;;;4.40;62.10;;;;;;4988927;28;20543;-68
2024/01/09 12:40:33;;;;;;;1.67;1.57;;;4.20;63.00;;;;;;4989572;28;20458;-68
2024/01/09 12:43:12;;;;;;;1.30;1.13;;;4.00;62.10;;;;;;4987071;28;20436;-68
2024/01/09 12:45:40;;;;;;;1.20;1.00;;;4.40;62.30;;;;;;4985061;28;20559;-68
2024/01/09 12:48:09;;;;;;;3.77;2.10;;;4.20;59.80;;;;;;4984926;28;20599;-68